Time;durP1;ratioP1;P1;durP2;ratioP2;P2;SDS_P1;SDS_P2;PMS_P1;PMS_P2;Temp;Humidity;BMP_temperature;BMP_pressure;BME280_temperature;BME280_humidity;BME280_pressure;Samples;Min_cycle;Max_cycle;Signal;HPM_P1;HPM_P2
2023/03/21 00:00:20;;;;;;;46.97;30.15;;;9.80;99.90;;;;;;6180774;23;20008;-85
2023/03/21 00:02:46;;;;;;;52.28;31.15;;;9.80;99.90;;;;;;6183587;23;20017;-85
2023/03/21 00:05:11;;;;;;;50.25;31.92;;;9.80;99.90;;;;;;6182202;23;20502;-85
2023/03/21 00:07:37;;;;;;;46.53;30.35;;;9.80;99.90;;;;;;6181854;23;20442;-85
2023/03/21 00:10:03;;;;;;;42.58;29.27;;;9.90;99.90;;;;;;6197057;23;20020;-85
2023/03/21 00:12:31;;;;;;;42.17;28.92;;;9.90;99.90;;;;;;6206680;23;20120;-84
2023/03/21 00:15:04;;;;;;;45.25;29.27;;;9.90;99.90;;;;;;6208243;23;20008;-85
2023/03/21 00:17:31;;;;;;;48.63;31.60;;;9.90;99.90;;;;;;6209432;23;20017;-85
2023/03/21 00:19:57;;;;;;;50.22;30.00;;;9.80;99.90;;;;;;6207925;23;20473;-84
2023/03/21 00:22:24;;;;;;;51.55;31.55;;;9.80;99.90;;;;;;6208304;23;20058;-85
2023/03/21 00:24:51;;;;;;;46.22;28.88;;;9.90;99.90;;;;;;6210489;23;20020;-84
2023/03/21 00:27:18;;;;;;;42.75;29.27;;;9.90;99.90;;;;;;6207674;23;20027;-85
2023/03/21 00:29:44;;;;;;;44.10;29.45;;;9.90;99.90;;;;;;6207025;23;20017;-84
2023/03/21 00:32:10;;;;;;;45.65;29.33;;;9.90;99.90;;;;;;6208496;23;20362;-85
2023/03/21 00:34:37;;;;;;;39.70;27.13;;;9.90;99.90;;;;;;6210669;23;20024;-85
2023/03/21 00:37:04;;;;;;;36.05;26.35;;;9.90;99.90;;;;;;6208704;23;20048;-85
2023/03/21 00:39:30;;;;;;;36.65;25.65;;;9.90;99.90;;;;;;6207149;23;20387;-85
2023/03/21 00:41:56;;;;;;;37.47;26.42;;;9.90;99.90;;;;;;6209069;23;20079;-85
2023/03/21 00:44:24;;;;;;;38.95;28.17;;;10.00;99.90;;;;;;6206962;23;20045;-85
2023/03/21 00:46:50;;;;;;;37.10;26.75;;;10.00;99.90;;;;;;6208920;23;20016;-84
2023/03/21 00:49:16;;;;;;;44.53;28.42;;;10.00;99.90;;;;;;6207709;23;20024;-84
2023/03/21 00:51:42;;;;;;;46.53;29.38;;;9.90;99.90;;;;;;6208907;23;20100;-85
2023/03/21 00:54:11;;;;;;;39.55;28.80;;;9.90;99.90;;;;;;6208108;23;20022;-85
2023/03/21 00:56:37;;;;;;;48.25;30.20;;;9.90;99.90;;;;;;6207482;23;20017;-85
2023/03/21 00:59:02;;;;;;;40.95;28.52;;;9.90;99.90;;;;;;6207128;23;20096;-86
2023/03/21 01:01:30;;;;;;;44.20;29.10;;;10.00;99.90;;;;;;6206303;23;20016;-85
2023/03/21 01:04:09;;;;;;;49.35;29.65;;;9.90;99.90;;;;;;6207789;23;20013;-85
2023/03/21 01:06:38;;;;;;;47.95;30.63;;;9.90;99.90;;;;;;6206171;23;20024;-85
2023/03/21 01:09:05;;;;;;;43.78;29.05;;;9.90;99.90;;;;;;6207402;23;20016;-86
2023/03/21 01:11:31;;;;;;;40.72;27.75;;;9.90;99.90;;;;;;6207614;23;20418;-85
2023/03/21 01:13:57;;;;;;;44.55;29.08;;;9.90;99.90;;;;;;6208178;23;20004;-85
2023/03/21 01:16:23;;;;;;;45.47;29.05;;;9.90;99.90;;;;;;6206463;23;20385;-85
2023/03/21 01:18:49;;;;;;;42.00;28.08;;;9.90;99.90;;;;;;6208203;23;20019;-85
2023/03/21 01:21:15;;;;;;;40.47;27.98;;;9.90;99.90;;;;;;6210584;23;20076;-85
2023/03/21 01:23:42;;;;;;;39.40;27.48;;;9.90;99.90;;;;;;6209251;23;20016;-86
2023/03/21 01:26:09;;;;;;;41.03;28.42;;;9.90;99.90;;;;;;6209414;23;20020;-86
2023/03/21 01:28:37;;;;;;;50.90;29.90;;;10.00;99.90;;;;;;6209117;23;20012;-86
2023/03/21 01:31:04;;;;;;;46.90;30.58;;;9.90;99.90;;;;;;6214602;23;20045;-85
2023/03/21 01:33:31;;;;;;;46.92;29.25;;;9.90;99.90;;;;;;6211477;23;20048;-86
2023/03/21 01:35:57;;;;;;;47.00;30.63;;;10.00;99.90;;;;;;6214106;23;20324;-85
2023/03/21 01:38:23;;;;;;;51.13;31.45;;;9.90;99.90;;;;;;6211307;23;20013;-85
2023/03/21 01:40:50;;;;;;;48.22;31.75;;;10.00;99.90;;;;;;6215409;23;20023;-85
2023/03/21 01:43:28;;;;;;;55.92;33.40;;;9.90;99.90;;;;;;6212929;23;20369;-85
2023/03/21 01:46:09;;;;;;;54.03;33.72;;;9.90;99.90;;;;;;6187899;23;20016;-85
2023/03/21 01:48:42;;;;;;;45.80;31.40;;;9.90;99.90;;;;;;6214018;23;20482;-85
2023/03/21 01:51:11;;;;;;;45.05;30.30;;;9.90;99.90;;;;;;6212147;23;20019;-85
2023/03/21 01:53:38;;;;;;;45.42;31.30;;;10.00;99.90;;;;;;6220621;23;20413;-85
2023/03/21 01:56:29;;;;;;;43.50;30.55;;;9.90;99.90;;;;;;6222332;23;20016;-85
2023/03/21 01:58:57;;;;;;;;;;;10.00;99.90;;;;;;6205447;23;20099;-85
2023/03/21 02:01:23;;;;;;;48.45;31.85;;;10.00;99.90;;;;;;6207650;23;20237;-85
2023/03/21 02:03:50;;;;;;;49.55;33.15;;;10.00;99.90;;;;;;6207705;23;20096;-85
2023/03/21 02:06:30;;;;;;;58.78;35.53;;;10.00;99.90;;;;;;6208514;23;20339;-85
2023/03/21 02:09:00;;;;;;;52.90;35.00;;;10.00;99.90;;;;;;6206576;23;20017;-84
2023/03/21 02:11:28;;;;;;;55.65;34.72;;;10.00;99.90;;;;;;6205822;23;20020;-85
2023/03/21 02:13:54;;;;;;;58.00;35.65;;;10.00;99.90;;;;;;6208587;23;20369;-85
2023/03/21 02:16:36;;;;;;;49.83;35.35;;;10.00;99.90;;;;;;6209227;23;20016;-85
2023/03/21 02:19:23;;;;;;;59.10;35.65;;;10.00;99.90;;;;;;6208493;23;20465;-85
2023/03/21 02:22:19;;;;;;;58.65;35.03;;;10.00;99.90;;;;;;6207748;23;20012;-85
2023/03/21 02:25:24;;;;;;;51.13;33.97;;;9.90;99.90;;;;;;6208586;23;20028;-84
2023/03/21 02:27:57;;;;;;;57.88;34.08;;;9.90;99.90;;;;;;6184261;23;20043;-84
2023/03/21 02:31:05;;;;;;;57.08;33.03;;;9.90;99.90;;;;;;6208675;23;20044;-85
2023/03/21 02:33:41;;;;;;;41.72;29.27;;;9.90;99.90;;;;;;6210536;23;20061;-85
2023/03/21 02:36:57;;;;;;;44.25;30.80;;;10.00;99.90;;;;;;6210535;23;20092;-85
2023/03/21 02:39:48;;;;;;;54.17;32.42;;;9.90;99.90;;;;;;6068302;23;20432;-85
2023/03/21 02:42:28;;;;;;;59.47;34.40;;;9.90;99.90;;;;;;6092916;23;20014;-85
2023/03/21 02:45:08;;;;;;;55.67;33.20;;;9.90;99.90;;;;;;6118640;23;20018;-85
2023/03/21 02:47:42;;;;;;;50.22;31.27;;;9.90;99.90;;;;;;6117170;23;20018;-85
2023/03/21 02:50:14;;;;;;;48.67;30.40;;;9.90;99.90;;;;;;6117123;23;20049;-85
2023/03/21 02:52:44;;;;;;;41.38;28.10;;;9.80;99.90;;;;;;6093446;23;20072;-85
2023/03/21 02:55:18;;;;;;;38.75;26.20;;;9.90;99.90;;;;;;6117162;23;20014;-85
2023/03/21 02:57:47;;;;;;;39.72;26.17;;;9.90;99.90;;;;;;6118946;23;20010;-85
2023/03/21 03:00:18;;;;;;;36.97;25.30;;;9.90;99.90;;;;;;6116177;23;20010;-85
2023/03/21 03:02:44;;;;;;;36.22;25.27;;;9.90;99.90;;;;;;6117997;23;20068;-85
2023/03/21 03:05:13;;;;;;;38.35;24.95;;;9.90;99.90;;;;;;6093556;23;20014;-85
2023/03/21 03:08:08;;;;;;;36.45;24.42;;;9.90;99.90;;;;;;6092634;23;20104;-85
2023/03/21 03:11:01;;;;;;;39.97;24.15;;;9.90;99.90;;;;;;6091387;23;20089;-85
2023/03/21 03:13:44;;;;;;;35.22;23.83;;;9.80;99.90;;;;;;6091177;23;20408;-85
2023/03/21 03:16:35;;;;;;;34.90;22.88;;;9.80;99.90;;;;;;6182643;23;20016;-86
2023/03/21 03:19:05;;;;;;;34.38;23.17;;;9.80;99.90;;;;;;6209855;23;20092;-86
2023/03/21 03:21:43;;;;;;;35.67;23.85;;;9.80;99.90;;;;;;6209320;23;20024;-85
2023/03/21 03:24:26;;;;;;;33.38;22.65;;;9.80;99.90;;;;;;6207338;23;20020;-86
2023/03/21 03:27:03;;;;;;;33.38;23.27;;;9.80;99.90;;;;;;6208009;23;20024;-86
2023/03/21 03:29:32;;;;;;;32.78;22.90;;;9.80;99.90;;;;;;6207454;23;20020;-85
2023/03/21 03:32:11;;;;;;;35.92;23.80;;;9.80;99.90;;;;;;6208398;23;20013;-85
2023/03/21 03:34:40;;;;;;;33.25;23.50;;;9.80;99.90;;;;;;6207106;23;20023;-85
2023/03/21 03:37:11;;;;;;;38.70;24.33;;;9.80;99.90;;;;;;6209667;23;20353;-85
2023/03/21 03:39:48;;;;;;;33.47;23.02;;;9.80;99.90;;;;;;6208058;23;20013;-85
2023/03/21 03:42:19;;;;;;;32.85;23.50;;;9.80;99.90;;;;;;6207370;23;20095;-85
2023/03/21 03:44:45;;;;;;;32.58;24.38;;;9.80;99.90;;;;;;6210007;23;20012;-85
2023/03/21 03:47:17;;;;;;;30.73;23.55;;;9.80;99.90;;;;;;6210013;23;20039;-85
2023/03/21 03:50:08;;;;;;;30.02;23.13;;;9.80;99.90;;;;;;6210052;23;20334;-85
2023/03/21 03:52:40;;;;;;;34.20;23.97;;;9.80;99.90;;;;;;6163347;23;20012;-85
2023/03/21 03:55:08;;;;;;;31.73;23.42;;;9.80;99.90;;;;;;6209116;23;20143;-85
2023/03/21 03:57:34;;;;;;;29.77;23.58;;;9.80;99.90;;;;;;6209738;23;20012;-86
2023/03/21 04:00:00;;;;;;;29.92;23.65;;;9.80;99.90;;;;;;6208542;23;20043;-85
2023/03/21 04:02:25;;;;;;;31.42;24.10;;;9.80;99.90;;;;;;6209821;23;20013;-85
2023/03/21 04:04:52;;;;;;;30.92;23.95;;;9.80;99.90;;;;;;6207773;23;20017;-85
2023/03/21 04:07:20;;;;;;;30.33;23.30;;;9.80;99.90;;;;;;6207864;23;20182;-86
2023/03/21 04:09:45;;;;;;;30.20;23.42;;;9.80;99.90;;;;;;6207919;23;20017;-85
2023/03/21 04:12:12;;;;;;;30.83;23.15;;;9.80;99.90;;;;;;6207635;23;20047;-86
2023/03/21 04:14:38;;;;;;;32.83;22.95;;;9.80;99.90;;;;;;6182860;23;20012;-85
2023/03/21 04:17:03;;;;;;;33.03;23.65;;;9.80;99.90;;;;;;6208647;23;20545;-85
2023/03/21 04:19:29;;;;;;;30.23;22.70;;;9.80;99.90;;;;;;6207015;23;20021;-85
2023/03/21 04:21:54;;;;;;;32.35;23.02;;;9.80;99.90;;;;;;6208213;23;20488;-85
2023/03/21 04:24:21;;;;;;;33.67;24.15;;;9.80;99.90;;;;;;6182533;23;20479;-85
2023/03/21 04:26:46;;;;;;;32.72;24.27;;;9.80;99.90;;;;;;6208431;23;20025;-85
2023/03/21 04:29:12;;;;;;;31.80;23.33;;;9.80;99.90;;;;;;6207667;23;20092;-85
2023/03/21 04:31:40;;;;;;;31.73;23.42;;;9.80;99.90;;;;;;6207363;23;20890;-85
2023/03/21 04:34:08;;;;;;;34.05;25.35;;;9.80;99.90;;;;;;6210255;23;20028;-86
2023/03/21 04:36:37;;;;;;;34.70;24.98;;;9.80;99.90;;;;;;6207845;23;20047;-86
2023/03/21 04:39:11;;;;;;;32.47;24.60;;;9.80;99.90;;;;;;6207641;23;20341;-85
2023/03/21 04:41:38;;;;;;;32.40;25.67;;;9.80;99.90;;;;;;6207642;23;20013;-85
2023/03/21 04:44:04;;;;;;;33.05;26.20;;;9.80;99.90;;;;;;6207354;23;20012;-85
2023/03/21 04:46:29;;;;;;;35.10;27.13;;;9.80;99.90;;;;;;6207494;23;20023;-85
2023/03/21 04:48:55;;;;;;;33.58;26.35;;;9.80;99.90;;;;;;6207766;23;20016;-85
2023/03/21 04:51:21;;;;;;;32.33;27.33;;;9.80;99.90;;;;;;6207192;23;20031;-85
2023/03/21 04:53:48;;;;;;;31.75;25.35;;;9.80;99.90;;;;;;6207113;23;20016;-85
2023/03/21 04:56:14;;;;;;;34.33;26.48;;;9.80;99.90;;;;;;6207601;23;20016;-86
2023/03/21 04:58:41;;;;;;;33.15;27.33;;;9.80;99.90;;;;;;6208538;23;20051;-85
2023/03/21 05:01:07;;;;;;;34.33;27.88;;;9.80;99.90;;;;;;6209322;23;20016;-85
2023/03/21 05:03:33;;;;;;;35.33;28.40;;;9.80;99.90;;;;;;6209333;23;20360;-84
2023/03/21 05:06:02;;;;;;;35.63;28.33;;;9.80;99.90;;;;;;6210985;23;20027;-85
2023/03/21 05:08:28;;;;;;;34.35;28.23;;;9.80;99.90;;;;;;6210796;23;20475;-85
2023/03/21 05:10:54;;;;;;;35.90;28.92;;;9.80;99.90;;;;;;6185948;23;20023;-85
2023/03/21 05:13:19;;;;;;;36.45;30.77;;;9.80;99.90;;;;;;6162766;23;20075;-84
2023/03/21 05:15:45;;;;;;;38.55;29.92;;;9.80;99.90;;;;;;6189186;23;20020;-85
2023/03/21 05:18:11;;;;;;;37.50;29.75;;;9.80;99.90;;;;;;6188257;23;20028;-86
2023/03/21 05:20:41;;;;;;;38.47;32.35;;;9.80;99.90;;;;;;6166072;23;20023;-85
2023/03/21 05:23:09;;;;;;;44.08;32.47;;;9.80;99.90;;;;;;6189237;23;20057;-84
2023/03/21 05:25:38;;;;;;;41.10;32.85;;;9.80;99.90;;;;;;6163390;23;20020;-85
2023/03/21 05:28:06;;;;;;;41.38;32.83;;;9.80;99.90;;;;;;6216071;23;20036;-85
2023/03/21 05:30:32;;;;;;;45.88;34.72;;;9.70;99.90;;;;;;6189930;23;20016;-86
2023/03/21 05:32:59;;;;;;;44.20;35.20;;;9.80;99.90;;;;;;6166434;23;20022;-85
2023/03/21 05:35:25;;;;;;;44.08;35.65;;;9.80;99.90;;;;;;6190669;23;20019;-85
2023/03/21 05:37:51;;;;;;;47.13;37.38;;;9.80;99.90;;;;;;6191107;23;20022;-85
2023/03/21 05:40:17;;;;;;;48.08;39.30;;;9.80;99.90;;;;;;6210495;23;20047;-86
2023/03/21 05:42:45;;;;;;;52.80;38.17;;;9.70;99.90;;;;;;6179085;23;20016;-84
2023/03/21 05:45:10;;;;;;;51.17;38.72;;;9.80;99.90;;;;;;6178006;23;20327;-90
2023/03/21 05:47:36;;;;;;;48.50;37.90;;;9.80;99.90;;;;;;6181347;23;20032;-86
2023/03/21 05:50:02;;;;;;;56.95;41.10;;;9.70;99.90;;;;;;6207883;23;20041;-86
2023/03/21 05:52:28;;;;;;;51.40;39.13;;;9.70;99.90;;;;;;6207046;23;20017;-86
2023/03/21 05:54:54;;;;;;;54.80;39.83;;;9.70;99.90;;;;;;6206527;23;20100;-86
2023/03/21 05:57:20;;;;;;;56.33;40.17;;;9.70;99.90;;;;;;6179681;23;20045;-86
2023/03/21 05:59:46;;;;;;;53.42;39.47;;;9.70;99.90;;;;;;6206920;23;20019;-87
2023/03/21 06:02:11;;;;;;;55.60;42.20;;;9.70;99.90;;;;;;6182553;23;20044;-89
2023/03/21 06:04:37;;;;;;;60.40;41.63;;;9.70;99.90;;;;;;6183777;23;20027;-85
2023/03/21 06:07:03;;;;;;;54.78;41.83;;;9.70;99.90;;;;;;6209601;23;20013;-84
2023/03/21 06:09:28;;;;;;;60.85;43.10;;;9.70;99.90;;;;;;6207286;23;20025;-86
2023/03/21 06:11:57;;;;;;;57.20;42.40;;;9.70;99.90;;;;;;6210025;23;20023;-83
2023/03/21 06:14:23;;;;;;;53.67;39.97;;;9.70;99.90;;;;;;6209657;23;20084;-86
2023/03/21 06:16:49;;;;;;;55.28;41.08;;;9.70;99.90;;;;;;6158053;23;20051;-84
2023/03/21 06:19:15;;;;;;;65.80;44.38;;;9.70;99.90;;;;;;6209059;23;20302;-85
2023/03/21 06:21:41;;;;;;;58.88;41.05;;;9.70;99.90;;;;;;6209283;23;20009;-85
2023/03/21 06:24:07;;;;;;;52.30;39.42;;;9.70;99.90;;;;;;6182231;23;20013;-86
2023/03/21 06:26:33;;;;;;;52.58;39.08;;;9.70;99.90;;;;;;6209287;23;20025;-85
2023/03/21 06:28:58;;;;;;;51.65;38.60;;;9.70;99.90;;;;;;6181820;23;20357;-87
2023/03/21 06:31:25;;;;;;;57.40;42.17;;;9.70;99.90;;;;;;6182593;23;20016;-87
2023/03/21 06:33:52;;;;;;;55.38;39.13;;;9.80;99.90;;;;;;6183687;23;20701;-89
2023/03/21 06:36:18;;;;;;;50.35;37.63;;;9.80;99.90;;;;;;6208922;23;20095;-87
2023/03/21 06:38:45;;;;;;;47.60;35.92;;;9.80;99.90;;;;;;6181849;23;20044;-90
2023/03/21 06:41:11;;;;;;;55.47;37.25;;;9.80;99.90;;;;;;6209809;23;20048;-86
2023/03/21 06:43:37;;;;;;;46.33;34.20;;;9.80;99.90;;;;;;6208922;23;20023;-86
2023/03/21 06:46:04;;;;;;;42.30;33.10;;;9.80;99.90;;;;;;6185218;23;20438;-89
2023/03/21 06:48:30;;;;;;;42.67;32.22;;;9.80;99.90;;;;;;6186944;23;20013;-88
2023/03/21 06:50:56;;;;;;;41.70;30.88;;;9.80;99.90;;;;;;6185610;23;20051;-86
2023/03/21 06:53:26;;;;;;;38.53;29.17;;;9.80;99.90;;;;;;6208453;23;20063;-87
2023/03/21 06:55:53;;;;;;;32.22;26.30;;;9.80;99.90;;;;;;6208886;23;20092;-86
2023/03/21 06:58:19;;;;;;;32.08;25.88;;;9.80;99.90;;;;;;6207592;23;20051;-90
2023/03/21 07:00:45;;;;;;;29.17;23.42;;;9.80;99.90;;;;;;6210327;23;20028;-91
2023/03/21 07:03:12;;;;;;;29.60;23.15;;;9.90;99.90;;;;;;6157531;23;20009;-90
2023/03/21 07:05:38;;;;;;;25.98;21.92;;;9.90;99.90;;;;;;6209327;23;20013;-90
2023/03/21 07:08:05;;;;;;;27.20;21.42;;;9.90;99.90;;;;;;6158199;23;20009;-88
2023/03/21 07:10:31;;;;;;;27.35;22.42;;;9.90;99.90;;;;;;6203171;23;20473;-90
2023/03/21 07:13:00;;;;;;;25.20;20.10;;;9.90;99.90;;;;;;6207953;23;20031;-91
2023/03/21 07:15:26;;;;;;;25.48;20.48;;;9.90;99.90;;;;;;6209888;23;20012;-88
2023/03/21 07:17:51;;;;;;;24.27;20.70;;;9.90;99.90;;;;;;6208897;23;20020;-90
2023/03/21 07:20:17;;;;;;;25.25;19.65;;;9.90;99.90;;;;;;6207289;23;20504;-88
2023/03/21 07:22:43;;;;;;;24.10;20.42;;;9.90;99.90;;;;;;6209511;23;20012;-88
2023/03/21 07:25:09;;;;;;;25.92;21.45;;;9.90;99.90;;;;;;6206755;23;20394;-85
2023/03/21 07:27:35;;;;;;;24.73;20.88;;;9.90;99.90;;;;;;6208644;23;20327;-88
2023/03/21 07:30:03;;;;;;;24.52;21.20;;;9.90;99.90;;;;;;6210060;23;20087;-88
2023/03/21 07:32:32;;;;;;;25.95;21.58;;;9.90;99.90;;;;;;6208649;23;20070;-89
2023/03/21 07:34:59;;;;;;;26.38;22.55;;;9.90;99.90;;;;;;6185066;23;20044;-92
2023/03/21 07:37:25;;;;;;;27.60;23.17;;;9.90;99.90;;;;;;6208008;23;20036;-88
2023/03/21 07:39:51;;;;;;;27.73;22.98;;;9.90;99.90;;;;;;6209960;23;20058;-88
2023/03/21 07:42:17;;;;;;;26.88;22.38;;;9.90;99.90;;;;;;6208719;23;20012;-88
2023/03/21 07:44:42;;;;;;;30.70;24.92;;;10.00;99.90;;;;;;6209484;23;20513;-87
2023/03/21 07:47:08;;;;;;;29.85;23.77;;;9.90;99.90;;;;;;6212280;23;20016;-88
2023/03/21 07:49:34;;;;;;;26.55;23.73;;;9.90;99.90;;;;;;6214354;23;20024;-87
2023/03/21 07:52:01;;;;;;;27.17;23.42;;;9.90;99.90;;;;;;6196588;23;20035;-88
2023/03/21 07:54:27;;;;;;;28.17;24.05;;;9.90;99.90;;;;;;6215619;23;20471;-89
2023/03/21 07:56:54;;;;;;;31.48;25.55;;;9.90;99.90;;;;;;6211696;23;20282;-88
2023/03/21 07:59:20;;;;;;;27.95;24.80;;;9.90;99.90;;;;;;6210349;23;20013;-89
2023/03/21 08:01:46;;;;;;;25.92;23.20;;;9.90;99.90;;;;;;6213250;23;20067;-88
2023/03/21 08:04:12;;;;;;;26.42;23.02;;;9.90;99.90;;;;;;6213466;23;20009;-88
2023/03/21 08:06:38;;;;;;;27.08;23.88;;;9.90;99.90;;;;;;6209180;23;20039;-89
2023/03/21 08:09:04;;;;;;;28.80;24.33;;;9.90;99.90;;;;;;6211728;23;20012;-89
2023/03/21 08:11:30;;;;;;;28.35;24.27;;;9.90;99.90;;;;;;6181982;23;20021;-88
2023/03/21 08:13:57;;;;;;;27.48;24.50;;;9.90;99.90;;;;;;6221769;23;20052;-89
2023/03/21 08:16:23;;;;;;;26.88;23.63;;;9.90;99.90;;;;;;6191043;23;20088;-89
2023/03/21 08:18:49;;;;;;;27.23;23.90;;;9.90;99.90;;;;;;6159660;23;20043;-89
2023/03/21 08:21:15;;;;;;;31.25;26.17;;;10.00;99.90;;;;;;6209997;23;20377;-89
2023/03/21 08:23:40;;;;;;;30.30;25.08;;;10.00;99.90;;;;;;6183156;23;20012;-89
2023/03/21 08:26:06;;;;;;;29.85;25.20;;;9.90;99.90;;;;;;6209450;23;20063;-89
2023/03/21 08:28:32;;;;;;;29.20;24.48;;;10.00;99.90;;;;;;6183193;23;20380;-90
2023/03/21 08:30:58;;;;;;;25.60;22.85;;;10.00;99.90;;;;;;6184274;23;20021;-88
2023/03/21 08:33:23;;;;;;;27.13;22.63;;;10.00;99.90;;;;;;6183103;23;20012;-88
2023/03/21 08:35:49;;;;;;;26.38;21.90;;;10.10;99.90;;;;;;6184314;23;20016;-95
2023/03/21 08:38:15;;;;;;;30.20;23.58;;;10.10;99.90;;;;;;6189130;23;20020;-96
2023/03/21 08:40:41;;;;;;;27.92;22.35;;;10.10;99.90;;;;;;6160680;23;20017;-91
2023/03/21 08:43:07;;;;;;;27.70;22.20;;;10.10;99.90;;;;;;6185615;23;20044;-88
2023/03/21 08:45:33;;;;;;;26.33;22.27;;;10.10;99.90;;;;;;6185986;23;20079;-90
2023/03/21 08:47:58;;;;;;;26.25;21.98;;;10.10;99.90;;;;;;6186855;23;20013;-86
2023/03/21 08:50:26;;;;;;;26.48;22.00;;;10.10;99.90;;;;;;6212885;23;20009;-88
2023/03/21 08:52:52;;;;;;;29.35;24.48;;;10.10;99.90;;;;;;6187018;23;20067;-94
2023/03/21 08:55:18;;;;;;;28.25;23.50;;;10.10;99.90;;;;;;6163130;23;20446;-89
2023/03/21 08:57:44;;;;;;;27.85;23.95;;;10.10;99.90;;;;;;6214991;23;20016;-91
2023/03/21 09:00:15;;;;;;;30.33;25.05;;;10.10;99.90;;;;;;6216692;23;20012;-89
2023/03/21 09:02:42;;;;;;;;;;;10.20;99.90;;;;;;6217668;23;20080;-93
2023/03/21 09:05:10;;;;;;;30.70;26.20;;;10.20;99.90;;;;;;6165824;23;19952;-89
2023/03/21 09:07:37;;;;;;;33.70;25.95;;;10.20;99.90;;;;;;6196602;23;20016;-91
2023/03/21 09:10:09;;;;;;;30.90;26.67;;;10.20;99.90;;;;;;6213078;23;20130;-90
2023/03/21 09:12:35;;;;;;;32.50;27.65;;;10.20;99.90;;;;;;6231656;23;20001;-88
2023/03/21 09:15:04;;;;;;;34.75;27.98;;;10.20;99.90;;;;;;6235005;23;20023;-89
2023/03/21 09:17:31;;;;;;;31.15;25.85;;;10.20;99.90;;;;;;6225651;23;20032;-90
2023/03/21 09:19:59;;;;;;;34.25;27.67;;;10.20;99.90;;;;;;6193548;23;20062;-91
2023/03/21 09:22:26;;;;;;;35.42;28.42;;;10.20;99.90;;;;;;6211235;23;20015;-90
2023/03/21 09:24:52;;;;;;;32.40;27.73;;;10.20;99.90;;;;;;6214208;23;20004;-89
2023/03/21 09:27:21;;;;;;;32.55;27.02;;;10.20;99.90;;;;;;6210949;23;20021;-87
2023/03/21 09:29:48;;;;;;;33.97;26.10;;;10.20;99.90;;;;;;6211278;23;20143;-91
2023/03/21 09:32:16;;;;;;;30.90;25.65;;;10.20;99.90;;;;;;6185876;23;20442;-90
2023/03/21 09:34:42;;;;;;;32.97;26.92;;;10.20;99.90;;;;;;6210743;23;20044;-88
2023/03/21 09:37:12;;;;;;;31.20;25.60;;;10.20;99.90;;;;;;6211610;23;20028;-88
2023/03/21 09:39:39;;;;;;;30.88;25.48;;;10.20;99.90;;;;;;6210607;23;20012;-91
2023/03/21 09:42:18;;;;;;;30.65;24.70;;;10.30;99.90;;;;;;6211742;23;20280;-87
2023/03/21 09:45:01;;;;;;;29.42;24.55;;;10.30;99.90;;;;;;6208848;23;20453;-88
2023/03/21 09:47:32;;;;;;;31.25;23.83;;;10.30;99.90;;;;;;6206470;23;20625;-87
2023/03/21 09:50:11;;;;;;;29.65;23.67;;;10.30;99.90;;;;;;6207569;23;20395;-86
2023/03/21 09:52:52;;;;;;;29.80;24.02;;;10.30;99.90;;;;;;6209049;23;20304;-86
2023/03/21 09:55:23;;;;;;;30.23;25.10;;;10.30;99.90;;;;;;6206212;23;20520;-85
2023/03/21 09:58:19;;;;;;;30.25;25.10;;;10.30;99.90;;;;;;6209069;23;20055;-86
2023/03/21 10:00:48;;;;;;;32.17;25.23;;;10.30;99.90;;;;;;6205563;23;20062;-87
2023/03/21 10:03:28;;;;;;;30.98;24.35;;;10.30;99.90;;;;;;6208560;23;20008;-88
2023/03/21 10:05:57;;;;;;;27.08;23.77;;;10.30;99.90;;;;;;6210039;23;20027;-89
2023/03/21 10:08:31;;;;;;;29.77;24.05;;;10.30;99.90;;;;;;6181500;23;20029;-88
2023/03/21 10:11:16;;;;;;;28.42;23.83;;;10.40;99.90;;;;;;6208816;23;20381;-88
2023/03/21 10:14:02;;;;;;;28.90;22.85;;;10.40;99.90;;;;;;6205798;23;20027;-86
2023/03/21 10:16:31;;;;;;;26.15;22.33;;;10.40;99.90;;;;;;6205967;23;20091;-87
2023/03/21 10:19:01;;;;;;;28.17;23.83;;;10.40;99.90;;;;;;6208753;23;20009;-86
2023/03/21 10:21:28;;;;;;;27.05;22.70;;;10.40;99.90;;;;;;6207756;23;20343;-87
2023/03/21 10:23:56;;;;;;;26.15;22.05;;;10.40;99.90;;;;;;6211977;23;20047;-87
2023/03/21 10:26:26;;;;;;;26.63;21.80;;;10.50;99.90;;;;;;6212543;23;20012;-87
2023/03/21 10:28:54;;;;;;;26.77;22.35;;;10.50;99.90;;;;;;6209673;23;20036;-87
2023/03/21 10:31:24;;;;;;;27.95;23.35;;;10.50;99.90;;;;;;6205864;23;20339;-88
2023/03/21 10:33:53;;;;;;;29.27;21.97;;;10.60;99.90;;;;;;6209206;23;20013;-88
2023/03/21 10:36:28;;;;;;;25.80;21.63;;;10.60;99.90;;;;;;6208589;23;20023;-86
2023/03/21 10:39:07;;;;;;;26.38;21.75;;;10.60;99.90;;;;;;6208933;23;20067;-85
2023/03/21 10:41:33;;;;;;;25.85;21.77;;;10.70;99.90;;;;;;6209765;23;20419;-84
2023/03/21 10:44:13;;;;;;;27.88;22.05;;;10.70;99.90;;;;;;6182870;23;20070;-89
2023/03/21 10:46:53;;;;;;;25.67;20.08;;;10.70;99.90;;;;;;6208183;23;20063;-86
2023/03/21 10:49:20;;;;;;;25.85;20.77;;;10.80;99.90;;;;;;6213468;23;20016;-88
2023/03/21 10:51:50;;;;;;;25.25;19.55;;;10.80;99.90;;;;;;6229369;23;20016;-89
2023/03/21 10:54:20;;;;;;;25.58;20.17;;;10.80;99.90;;;;;;6217101;23;20009;-89
2023/03/21 10:56:55;;;;;;;25.17;19.75;;;10.90;99.90;;;;;;6209248;23;20016;-88
2023/03/21 10:59:22;;;;;;;24.05;20.17;;;10.90;99.90;;;;;;6209482;23;20024;-87
2023/03/21 11:01:51;;;;;;;25.20;20.08;;;11.00;99.90;;;;;;6211854;23;20312;-89
2023/03/21 11:04:25;;;;;;;26.35;19.40;;;11.00;99.90;;;;;;6187225;23;20013;-86
2023/03/21 11:06:54;;;;;;;23.40;18.98;;;11.10;99.90;;;;;;6207872;23;20013;-87
2023/03/21 11:09:23;;;;;;;23.05;19.35;;;11.10;99.90;;;;;;6208870;23;20016;-86
2023/03/21 11:12:00;;;;;;;23.80;18.35;;;11.20;99.90;;;;;;6183500;23;20024;-87
2023/03/21 11:14:37;;;;;;;23.02;18.40;;;11.20;99.90;;;;;;6209710;23;20027;-88
2023/03/21 11:17:26;;;;;;;22.42;18.92;;;11.20;99.90;;;;;;6210519;23;20016;-87
2023/03/21 11:19:57;;;;;;;23.98;18.58;;;11.30;99.90;;;;;;6182897;23;20066;-88
2023/03/21 11:22:30;;;;;;;22.67;18.40;;;11.30;99.90;;;;;;6208758;23;20378;-87
2023/03/21 11:25:01;;;;;;;23.50;18.83;;;11.50;99.90;;;;;;6210552;23;20059;-87
2023/03/21 11:27:28;;;;;;;23.00;19.45;;;11.60;99.90;;;;;;6182598;23;20777;-88
2023/03/21 11:29:56;;;;;;;24.45;18.27;;;11.60;99.90;;;;;;6210287;23;20017;-87
2023/03/21 11:32:35;;;;;;;22.20;17.52;;;11.60;99.90;;;;;;6181873;23;20008;-85
2023/03/21 11:35:06;;;;;;;19.90;16.05;;;11.60;99.90;;;;;;6209011;23;20059;-85
2023/03/21 11:37:45;;;;;;;19.63;15.80;;;11.60;99.90;;;;;;6181893;23;20501;-86
2023/03/21 11:40:18;;;;;;;20.60;16.85;;;11.70;99.90;;;;;;6208542;23;20009;-85
2023/03/21 11:42:47;;;;;;;18.10;15.70;;;11.70;99.90;;;;;;6158384;23;20009;-86
2023/03/21 11:45:17;;;;;;;21.35;15.80;;;11.80;99.90;;;;;;6181935;23;20066;-86
2023/03/21 11:47:44;;;;;;;18.50;15.45;;;11.90;99.90;;;;;;6207692;23;20074;-85
2023/03/21 11:50:31;;;;;;;16.60;14.07;;;12.00;99.90;;;;;;6182153;23;20096;-85
2023/03/21 11:53:18;;;;;;;19.23;14.25;;;12.00;99.90;;;;;;6182824;23;20047;-85
2023/03/21 11:56:02;;;;;;;15.57;13.18;;;12.10;99.90;;;;;;6182537;23;20028;-85
2023/03/21 11:58:55;;;;;;;18.25;13.15;;;12.10;99.90;;;;;;6180924;23;20017;-85
2023/03/21 12:01:39;;;;;;;19.23;13.23;;;12.10;99.90;;;;;;6182050;23;20020;-84
2023/03/21 12:04:43;;;;;;;17.55;12.15;;;12.10;99.90;;;;;;6183557;23;20008;-85
2023/03/21 12:07:20;;;;;;;15.25;12.02;;;12.10;99.90;;;;;;6210299;23;20017;-86
2023/03/21 12:10:11;;;;;;;15.82;11.25;;;12.30;99.90;;;;;;6194265;23;20417;-86
2023/03/21 12:13:07;;;;;;;16.10;11.93;;;12.30;99.90;;;;;;6183162;23;20071;-89
2023/03/21 12:16:05;;;;;;;14.07;11.45;;;12.40;99.90;;;;;;6208626;23;20505;-88
2023/03/21 12:19:09;;;;;;;15.00;10.30;;;12.40;99.90;;;;;;6161947;23;20048;-86
2023/03/21 12:22:09;;;;;;;13.93;10.35;;;12.40;99.90;;;;;;6183109;23;20008;-86
2023/03/21 12:24:55;;;;;;;14.40;10.48;;;12.40;99.90;;;;;;6210037;23;20035;-86
2023/03/21 12:27:46;;;;;;;15.40;10.68;;;12.40;99.90;;;;;;6208531;23;20410;-85
2023/03/21 12:30:24;;;;;;;16.73;10.52;;;12.30;99.90;;;;;;6210162;23;20013;-85
2023/03/21 12:33:02;;;;;;;14.60;10.13;;;12.20;99.90;;;;;;6208737;23;20051;-85
2023/03/21 12:35:37;;;;;;;13.88;10.88;;;12.10;99.90;;;;;;6209165;23;20016;-84
2023/03/21 12:38:21;;;;;;;14.98;10.77;;;12.10;99.90;;;;;;6210130;23;20021;-84
2023/03/21 12:40:57;;;;;;;14.57;10.68;;;12.10;99.90;;;;;;6208644;23;20086;-84
2023/03/21 12:44:03;;;;;;;14.55;10.52;;;12.00;99.90;;;;;;6209847;23;20091;-84
2023/03/21 12:46:35;;;;;;;15.93;10.90;;;12.00;99.90;;;;;;6211354;23;20393;-84
2023/03/21 12:49:02;;;;;;;15.05;10.85;;;12.00;99.90;;;;;;6212851;23;20009;-84
2023/03/21 12:51:35;;;;;;;16.05;10.88;;;12.00;99.90;;;;;;6209629;23;20043;-84